Volcan De Taburiente — ECKH — position and weather

sailwx.info

Track history (hours):
 
Tides and Currents Weather Stations Pressure Air Temp Water Temp Dewpoint Dewpoint Depression Visibility Wind Speed Wind Dir Waves Ship Positions

Volcan De Taburiente

Last reported at 2018-May-28 02:15 UTC. Time now 2018-Jun-24 12:22 UTC.
Position N 28°24' W 016°15'.
Warning: this ship's position is 27 days out of date.

Length 130 m; draft 4.7 m.

Type: Ship. MMSI: 224277000.

Date/timePositionNaut miles runAvg speedWind from/ knotsBaromVisibWave heightAir tempDewpointWater temp
2018-May-28 02:15N 28°24' W 016°15'518.9
2018-May-28 02:00N 28°29' W 016°14'1 1.6
2018-May-28 01:29N 28°28' W 016°15'0 0.0
2018-May-28 00:59N 28°28' W 016°15'0 0.0
2018-May-28 00:29N 28°28' W 016°15'0 0.0
2018-May-27 23:59N 28°28' W 016°15'0 0.0
2018-May-27 23:29N 28°28' W 016°15'0 0.0
2018-May-27 22:59N 28°28' W 016°15'0 0.0
2018-May-27 22:28N 28°28' W 016°15'0 0.0
2018-May-27 22:00N 28°28' W 016°15'1 1.5
2018-May-27 21:30N 28°29' W 016°14'3 0.4
2018-May-27 14:44N 28°28' W 016°11'314.6
2018-May-27 14:30N 28°29' W 016°15'0 0.6
2018-May-27 13:58N 28°28' W 016°15'0 0.0
2018-May-27 13:27N 28°28' W 016°15'0 0.0
2018-May-27 12:58N 28°28' W 016°15'0 0.0
2018-May-27 12:28N 28°28' W 016°15'0 0.0
2018-May-27 12:01N 28°28' W 016°15'0 0.0
2018-May-27 11:31N 28°28' W 016°15'0 0.0
2018-May-27 10:58N 28°28' W 016°15'0 0.0
2018-May-27 10:30N 28°28' W 016°15'0 0.0
2018-May-27 10:01N 28°28' W 016°15'1 1.9
2018-May-27 09:30N 28°29' W 016°14'3 0.2
2018-May-26 19:16N 28°28' W 016°11'413.5
2018-May-26 19:00N 28°28' W 016°15'0 0.3
2018-May-26 18:29N 28°28' W 016°15'0 0.0
2018-May-26 17:59N 28°28' W 016°15'0 0.0
2018-May-26 17:29N 28°28' W 016°15'0 0.0
2018-May-26 16:59N 28°28' W 016°15'0 0.0
2018-May-26 16:29N 28°28' W 016°15'0 0.0
2018-May-26 15:59N 28°28' W 016°15'0 0.0
2018-May-26 15:29N 28°28' W 016°15'0 0.0
2018-May-26 14:59N 28°28' W 016°15'0 0.0
2018-May-26 14:29N 28°28' W 016°15'0 0.0
2018-May-26 13:59N 28°28' W 016°15'0 0.0
2018-May-26 13:29N 28°28' W 016°15'0 0.0
2018-May-26 12:59N 28°28' W 016°15'0 0.0
2018-May-26 12:29N 28°28' W 016°15'0 0.0
2018-May-26 11:59N 28°28' W 016°15'0 0.0
2018-May-26 11:30N 28°28' W 016°15'0 0.0
2018-May-26 11:00N 28°28' W 016°15'0 0.0
2018-May-26 10:30N 28°28' W 016°15'0 0.0
2018-May-26 10:00N 28°28' W 016°15'1 1.3
2018-May-26 09:31N 28°29' W 016°14'48 2.5
2018-May-25 14:22N 28°09' W 015°25'0 0.0
2018-May-25 13:52N 28°09' W 015°25'0 0.0
2018-May-25 13:22N 28°09' W 015°25'0 0.0
2018-May-25 12:55N 28°09' W 015°25'0 0.0
2018-May-25 12:25N 28°09' W 015°25'0 0.0
2018-May-25 11:52N 28°09' W 015°25'0 0.0
2018-May-25 11:25N 28°09' W 015°25'0 0.0
2018-May-25 10:55N 28°09' W 015°25'0 0.0
2018-May-25 10:25N 28°09' W 015°25'0 0.0
2018-May-25 09:55N 28°09' W 015°25'0 0.0
2018-May-25 09:25N 28°09' W 015°25'0 0.0
2018-May-25 08:58N 28°09' W 015°25'0 0.0
2018-May-25 08:28N 28°09' W 015°25'0 0.0
2018-May-25 07:58N 28°09' W 015°25'0 0.0
2018-May-25 07:28N 28°09' W 015°25'0 0.0
2018-May-25 06:58N 28°09' W 015°25'0 0.0
2018-May-25 06:28N 28°09' W 015°25'0 0.0
2018-May-25 05:58N 28°09' W 015°25'0 0.0
2018-May-25 05:28N 28°09' W 015°25'0 0.0
2018-May-25 04:46N 28°09' W 015°25'0 0.0
2018-May-25 04:16N 28°09' W 015°25'0 0.0
2018-May-25 03:46N 28°09' W 015°25'0 0.0
2018-May-25 03:28N 28°09' W 015°25'0 0.0
2018-May-25 02:58N 28°09' W 015°25'0 0.0
2018-May-25 02:28N 28°09' W 015°25'0 0.0
2018-May-25 01:49N 28°09' W 015°25'0 0.0
2018-May-25 01:19N 28°09' W 015°25'0 0.0
2018-May-25 00:49N 28°09' W 015°25'0 0.0
2018-May-25 00:19N 28°09' W 015°25'0 0.0
2018-May-24 23:49N 28°09' W 015°25'0 0.0
2018-May-24 23:22N 28°09' W 015°25'0 0.0
2018-May-24 22:52N 28°09' W 015°25'0 0.0
2018-May-24 22:22N 28°09' W 015°25'0 0.0
2018-May-24 21:52N 28°09' W 015°25'0 0.0
2018-May-24 21:25N 28°09' W 015°25'0 0.0
2018-May-24 20:55N 28°09' W 015°25'0 0.0
2018-May-24 20:22N 28°09' W 015°25'0 0.0
2018-May-24 19:52N 28°09' W 015°25'0 0.0
2018-May-24 19:25N 28°09' W 015°25'0 0.0
2018-May-24 18:55N 28°09' W 015°25'0 0.0
2018-May-24 18:22N 28°09' W 015°25'0 0.0
2018-May-24 17:43N 28°09' W 015°25'0 0.0
2018-May-24 17:25N 28°09' W 015°25'0 0.0
2018-May-24 16:58N 28°09' W 015°25'0 0.0
2018-May-24 16:28N 28°09' W 015°25'0 0.0
2018-May-24 15:58N 28°09' W 015°25'0 0.0
2018-May-24 15:28N 28°09' W 015°25'0 0.0
2018-May-24 14:58N 28°09' W 015°25'0 0.0
2018-May-24 14:28N 28°09' W 015°25'0 0.0
2018-May-24 13:43N 28°09' W 015°25'0 0.0
2018-May-24 08:49N 28°09' W 015°25'0 0.0
2018-May-24 08:22N 28°09' W 015°25'0 0.0
2018-May-24 07:37N 28°09' W 015°25'0 0.0
2018-May-24 07:22N 28°09' W 015°25'0 0.0
2018-May-24 06:52N 28°09' W 015°25'0 0.0
2018-May-24 06:22N 28°09' W 015°25'0 0.0
2018-May-24 05:52N 28°09' W 015°25'0 0.0
2018-May-24 05:22N 28°09' W 015°25'0 0.0
2018-May-24 03:52N 28°09' W 015°25'0 0.0
2018-May-24 03:22N 28°09' W 015°25'0 0.0
2018-May-24 02:58N 28°09' W 015°25'0 0.0
2018-May-24 02:28N 28°09' W 015°25'0 0.0
2018-May-24 01:58N 28°09' W 015°25'0 0.0
2018-May-24 01:28N 28°09' W 015°25'0 0.0
2018-May-24 00:58N 28°09' W 015°25'0 0.0
2018-May-24 00:28N 28°09' W 015°25'0 0.0
2018-May-23 22:01N 28°09' W 015°25'0 0.0
2018-May-23 21:58N 28°09' W 015°25'0 0.0
2018-May-23 21:16N 28°09' W 015°25'0 0.0
2018-May-23 20:49N 28°09' W 015°25'0 0.0
2018-May-23 20:16N 28°09' W 015°25'0 0.0
2018-May-23 19:58N 28°09' W 015°25'0 0.0
2018-May-23 19:28N 28°09' W 015°25'0 0.0
2018-May-23 18:49N 28°09' W 015°25'0 0.0
2018-May-23 18:16N 28°09' W 015°25'0 0.0
2018-May-23 17:52N 28°09' W 015°25'0 0.0
2018-May-23 17:19N 28°09' W 015°25'0 0.0
2018-May-23 16:52N 28°09' W 015°25'0 0.0
2018-May-23 16:04N 28°09' W 015°25'0 0.0
2018-May-23 15:52N 28°09' W 015°25'0 0.0
2018-May-23 14:37N 28°09' W 015°25'0 0.0
2018-May-23 14:22N 28°09' W 015°25'0 0.0
2018-May-21 20:05N 28°09' W 015°25'0 5.4
2018-May-21 20:00N 28°08' W 015°25'3 6.7
2018-May-21 19:30N 28°07' W 015°22'1317.3
2018-May-21 18:46N 28°06' W 015°07'2 1.2
2018-May-21 17:20N 28°07' W 015°09'4 2.7
2018-May-21 15:58N 28°05' W 015°13'919.1
2018-May-21 15:30N 28°07' W 015°22'3 0.1
2018-May-20 19:00N 28°09' W 015°25'4 8.0
2018-May-20 18:30N 28°07' W 015°21'4 0.5
2018-May-20 09:09N 28°06' W 015°16'214.2
2018-May-20 09:01N 28°06' W 015°19'610.4
2018-May-20 08:27N 28°08' W 015°25'1 0.8
2018-May-20 06:51N 28°09' W 015°25'0 0.0
2018-May-20 06:29N 28°09' W 015°25'0 0.0
2018-May-20 06:00N 28°09' W 015°25'0 0.0
2018-May-20 05:30N 28°09' W 015°25'0 0.0
2018-May-20 04:58N 28°09' W 015°25'0 0.0
2018-May-20 04:15N 28°09' W 015°25'0 0.0
2018-May-20 03:55N 28°09' W 015°25'0 0.0
2018-May-20 03:27N 28°09' W 015°25'0 0.0
2018-May-20 03:00N 28°09' W 015°25'0 0.0
2018-May-20 02:30N 28°09' W 015°25'0 0.0
2018-May-20 01:58N 28°09' W 015°25'0 0.0
2018-May-20 01:30N 28°09' W 015°25'0 0.0
2018-May-20 00:55N 28°09' W 015°25'0 0.0
2018-May-19 16:11N 28°09' W 015°25'0 0.0
2018-May-19 16:00N 28°09' W 015°25'0 0.0
2018-May-19 11:10N 28°09' W 015°25'0 0.0
2018-May-19 10:47N 28°09' W 015°25'0 0.0
2018-May-19 06:03N 28°09' W 015°25'0 0.0
2018-May-19 03:46N 28°09' W 015°25'0 0.0
2018-May-19 03:30N 28°09' W 015°25'0 0.0
2018-May-19 03:00N 28°09' W 015°25'0 0.0
2018-May-19 02:30N 28°09' W 015°25'0 0.0
2018-May-19 02:00N 28°09' W 015°25'0 0.0
2018-May-19 01:30N 28°09' W 015°25'0 0.0
2018-May-19 01:00N 28°09' W 015°25'0 0.0
2018-May-19 00:29N 28°09' W 015°25'0 0.0
2018-May-18 23:58N 28°09' W 015°25'0 0.0
2018-May-18 23:29N 28°09' W 015°25'0 0.0
2018-May-18 23:00N 28°09' W 015°25'0 0.0
2018-May-18 22:30N 28°09' W 015°25'0 0.0
2018-May-18 20:12N 28°09' W 015°25'0 0.0
2018-May-18 20:00N 28°09' W 015°25'0 0.0
2018-May-18 16:09N 28°09' W 015°25'0 0.0
2018-May-18 15:59N 28°09' W 015°25'0 0.0
2018-May-18 15:30N 28°09' W 015°25'0 0.0
2018-May-18 14:57N 28°09' W 015°25'0 0.0
2018-May-18 14:28N 28°09' W 015°25'0 0.0
2018-May-18 14:00N 28°09' W 015°25'0 0.0
2018-May-18 13:29N 28°09' W 015°25'0 0.0
2018-May-18 12:50N 28°09' W 015°25'0 0.0
2018-May-18 12:29N 28°09' W 015°25'0 0.0
2018-May-18 12:00N 28°09' W 015°25'0 0.0
2018-May-18 11:30N 28°09' W 015°25'0 0.0
2018-May-18 11:00N 28°09' W 015°25'0 0.0
2018-May-18 10:30N 28°09' W 015°25'0 0.0
2018-May-18 09:57N 28°09' W 015°25'0 0.0
2018-May-18 09:30N 28°09' W 015°25'0 0.0
2018-May-18 09:00N 28°09' W 015°25'  
Track history (hours):
 
Tides and Currents Weather Stations Pressure Air Temp Water Temp Dewpoint Dewpoint Depression Visibility Wind Speed Wind Dir Waves Ship Positions

Volcan De Taburiente

Last reported at 2018-May-28 02:15 UTC. Time now 2018-Jun-24 12:22 UTC.
Position N 28°24' W 016°15'.
Warning: this ship's position is 27 days out of date.

Length 130 m; draft 4.7 m.

Type: Ship. MMSI: 224277000.

Date/timePositionNaut miles runAvg speedWind from/ knotsBaromVisibWave heightAir tempDewpointWater temp
2018-May-28 02:15N 28°24' W 016°15'518.9
2018-May-28 02:00N 28°29' W 016°14'1 1.6
2018-May-28 01:29N 28°28' W 016°15'0 0.0
2018-May-28 00:59N 28°28' W 016°15'0 0.0
2018-May-28 00:29N 28°28' W 016°15'0 0.0
2018-May-27 23:59N 28°28' W 016°15'0 0.0
2018-May-27 23:29N 28°28' W 016°15'0 0.0
2018-May-27 22:59N 28°28' W 016°15'0 0.0
2018-May-27 22:28N 28°28' W 016°15'0 0.0
2018-May-27 22:00N 28°28' W 016°15'1 1.5
2018-May-27 21:30N 28°29' W 016°14'3 0.4
2018-May-27 14:44N 28°28' W 016°11'314.6
2018-May-27 14:30N 28°29' W 016°15'0 0.6
2018-May-27 13:58N 28°28' W 016°15'0 0.0
2018-May-27 13:27N 28°28' W 016°15'0 0.0
2018-May-27 12:58N 28°28' W 016°15'0 0.0
2018-May-27 12:28N 28°28' W 016°15'0 0.0
2018-May-27 12:01N 28°28' W 016°15'0 0.0
2018-May-27 11:31N 28°28' W 016°15'0 0.0
2018-May-27 10:58N 28°28' W 016°15'0 0.0
2018-May-27 10:30N 28°28' W 016°15'0 0.0
2018-May-27 10:01N 28°28' W 016°15'1 1.9
2018-May-27 09:30N 28°29' W 016°14'3 0.2
2018-May-26 19:16N 28°28' W 016°11'413.5
2018-May-26 19:00N 28°28' W 016°15'0 0.3
2018-May-26 18:29N 28°28' W 016°15'0 0.0
2018-May-26 17:59N 28°28' W 016°15'0 0.0
2018-May-26 17:29N 28°28' W 016°15'0 0.0
2018-May-26 16:59N 28°28' W 016°15'0 0.0
2018-May-26 16:29N 28°28' W 016°15'0 0.0
2018-May-26 15:59N 28°28' W 016°15'0 0.0
2018-May-26 15:29N 28°28' W 016°15'0 0.0
2018-May-26 14:59N 28°28' W 016°15'0 0.0
2018-May-26 14:29N 28°28' W 016°15'0 0.0
2018-May-26 13:59N 28°28' W 016°15'0 0.0
2018-May-26 13:29N 28°28' W 016°15'0 0.0
2018-May-26 12:59N 28°28' W 016°15'0 0.0
2018-May-26 12:29N 28°28' W 016°15'0 0.0
2018-May-26 11:59N 28°28' W 016°15'0 0.0
2018-May-26 11:30N 28°28' W 016°15'0 0.0
2018-May-26 11:00N 28°28' W 016°15'0 0.0
2018-May-26 10:30N 28°28' W 016°15'0 0.0
2018-May-26 10:00N 28°28' W 016°15'1 1.3
2018-May-26 09:31N 28°29' W 016°14'48 2.5
2018-May-25 14:22N 28°09' W 015°25'0 0.0
2018-May-25 13:52N 28°09' W 015°25'0 0.0
2018-May-25 13:22N 28°09' W 015°25'0 0.0
2018-May-25 12:55N 28°09' W 015°25'0 0.0
2018-May-25 12:25N 28°09' W 015°25'0 0.0
2018-May-25 11:52N 28°09' W 015°25'0 0.0
2018-May-25 11:25N 28°09' W 015°25'0 0.0
2018-May-25 10:55N 28°09' W 015°25'0 0.0
2018-May-25 10:25N 28°09' W 015°25'0 0.0
2018-May-25 09:55N 28°09' W 015°25'0 0.0
2018-May-25 09:25N 28°09' W 015°25'0 0.0
2018-May-25 08:58N 28°09' W 015°25'0 0.0
2018-May-25 08:28N 28°09' W 015°25'0 0.0
2018-May-25 07:58N 28°09' W 015°25'0 0.0
2018-May-25 07:28N 28°09' W 015°25'0 0.0
2018-May-25 06:58N 28°09' W 015°25'0 0.0
2018-May-25 06:28N 28°09' W 015°25'0 0.0
2018-May-25 05:58N 28°09' W 015°25'0 0.0
2018-May-25 05:28N 28°09' W 015°25'0 0.0
2018-May-25 04:46N 28°09' W 015°25'0 0.0
2018-May-25 04:16N 28°09' W 015°25'0 0.0
2018-May-25 03:46N 28°09' W 015°25'0 0.0
2018-May-25 03:28N 28°09' W 015°25'0 0.0
2018-May-25 02:58N 28°09' W 015°25'0 0.0
2018-May-25 02:28N 28°09' W 015°25'0 0.0
2018-May-25 01:49N 28°09' W 015°25'0 0.0
2018-May-25 01:19N 28°09' W 015°25'0 0.0
2018-May-25 00:49N 28°09' W 015°25'0 0.0
2018-May-25 00:19N 28°09' W 015°25'0 0.0
2018-May-24 23:49N 28°09' W 015°25'0 0.0
2018-May-24 23:22N 28°09' W 015°25'0 0.0
2018-May-24 22:52N 28°09' W 015°25'0 0.0
2018-May-24 22:22N 28°09' W 015°25'0 0.0
2018-May-24 21:52N 28°09' W 015°25'0 0.0
2018-May-24 21:25N 28°09' W 015°25'0 0.0
2018-May-24 20:55N 28°09' W 015°25'0 0.0
2018-May-24 20:22N 28°09' W 015°25'0 0.0
2018-May-24 19:52N 28°09' W 015°25'0 0.0
2018-May-24 19:25N 28°09' W 015°25'0 0.0
2018-May-24 18:55N 28°09' W 015°25'0 0.0
2018-May-24 18:22N 28°09' W 015°25'0 0.0
2018-May-24 17:43N 28°09' W 015°25'0 0.0
2018-May-24 17:25N 28°09' W 015°25'0 0.0
2018-May-24 16:58N 28°09' W 015°25'0 0.0
2018-May-24 16:28N 28°09' W 015°25'0 0.0
2018-May-24 15:58N 28°09' W 015°25'0 0.0
2018-May-24 15:28N 28°09' W 015°25'0 0.0
2018-May-24 14:58N 28°09' W 015°25'0 0.0
2018-May-24 14:28N 28°09' W 015°25'0 0.0
2018-May-24 13:43N 28°09' W 015°25'0 0.0
2018-May-24 08:49N 28°09' W 015°25'0 0.0
2018-May-24 08:22N 28°09' W 015°25'0 0.0
2018-May-24 07:37N 28°09' W 015°25'0 0.0
2018-May-24 07:22N 28°09' W 015°25'0 0.0
2018-May-24 06:52N 28°09' W 015°25'0 0.0
2018-May-24 06:22N 28°09' W 015°25'0 0.0
2018-May-24 05:52N 28°09' W 015°25'0 0.0
2018-May-24 05:22N 28°09' W 015°25'0 0.0
2018-May-24 03:52N 28°09' W 015°25'0 0.0
2018-May-24 03:22N 28°09' W 015°25'0 0.0
2018-May-24 02:58N 28°09' W 015°25'0 0.0
2018-May-24 02:28N 28°09' W 015°25'0 0.0
2018-May-24 01:58N 28°09' W 015°25'0 0.0
2018-May-24 01:28N 28°09' W 015°25'0 0.0
2018-May-24 00:58N 28°09' W 015°25'0 0.0
2018-May-24 00:28N 28°09' W 015°25'0 0.0
2018-May-23 22:01N 28°09' W 015°25'0 0.0
2018-May-23 21:58N 28°09' W 015°25'0 0.0
2018-May-23 21:16N 28°09' W 015°25'0 0.0
2018-May-23 20:49N 28°09' W 015°25'0 0.0
2018-May-23 20:16N 28°09' W 015°25'0 0.0
2018-May-23 19:58N 28°09' W 015°25'0 0.0
2018-May-23 19:28N 28°09' W 015°25'0 0.0
2018-May-23 18:49N 28°09' W 015°25'0 0.0
2018-May-23 18:16N 28°09' W 015°25'0 0.0
2018-May-23 17:52N 28°09' W 015°25'0 0.0
2018-May-23 17:19N 28°09' W 015°25'0 0.0
2018-May-23 16:52N 28°09' W 015°25'0 0.0
2018-May-23 16:04N 28°09' W 015°25'0 0.0
2018-May-23 15:52N 28°09' W 015°25'0 0.0
2018-May-23 14:37N 28°09' W 015°25'0 0.0
2018-May-23 14:22N 28°09' W 015°25'0 0.0
2018-May-21 20:05N 28°09' W 015°25'0 5.4
2018-May-21 20:00N 28°08' W 015°25'3 6.7
2018-May-21 19:30N 28°07' W 015°22'1317.3
2018-May-21 18:46N 28°06' W 015°07'2 1.2
2018-May-21 17:20N 28°07' W 015°09'4 2.7
2018-May-21 15:58N 28°05' W 015°13'919.1
2018-May-21 15:30N 28°07' W 015°22'3 0.1
2018-May-20 19:00N 28°09' W 015°25'4 8.0
2018-May-20 18:30N 28°07' W 015°21'4 0.5
2018-May-20 09:09N 28°06' W 015°16'214.2
2018-May-20 09:01N 28°06' W 015°19'610.4
2018-May-20 08:27N 28°08' W 015°25'1 0.8
2018-May-20 06:51N 28°09' W 015°25'0 0.0
2018-May-20 06:29N 28°09' W 015°25'0 0.0
2018-May-20 06:00N 28°09' W 015°25'0 0.0
2018-May-20 05:30N 28°09' W 015°25'0 0.0
2018-May-20 04:58N 28°09' W 015°25'0 0.0
2018-May-20 04:15N 28°09' W 015°25'0 0.0
2018-May-20 03:55N 28°09' W 015°25'0 0.0
2018-May-20 03:27N 28°09' W 015°25'0 0.0
2018-May-20 03:00N 28°09' W 015°25'0 0.0
2018-May-20 02:30N 28°09' W 015°25'0 0.0
2018-May-20 01:58N 28°09' W 015°25'0 0.0
2018-May-20 01:30N 28°09' W 015°25'0 0.0
2018-May-20 00:55N 28°09' W 015°25'0 0.0
2018-May-19 16:11N 28°09' W 015°25'0 0.0
2018-May-19 16:00N 28°09' W 015°25'0 0.0
2018-May-19 11:10N 28°09' W 015°25'0 0.0
2018-May-19 10:47N 28°09' W 015°25'0 0.0
2018-May-19 06:03N 28°09' W 015°25'0 0.0
2018-May-19 03:46N 28°09' W 015°25'0 0.0
2018-May-19 03:30N 28°09' W 015°25'0 0.0
2018-May-19 03:00N 28°09' W 015°25'0 0.0
2018-May-19 02:30N 28°09' W 015°25'0 0.0
2018-May-19 02:00N 28°09' W 015°25'0 0.0
2018-May-19 01:30N 28°09' W 015°25'0 0.0
2018-May-19 01:00N 28°09' W 015°25'0 0.0
2018-May-19 00:29N 28°09' W 015°25'0 0.0
2018-May-18 23:58N 28°09' W 015°25'0 0.0
2018-May-18 23:29N 28°09' W 015°25'0 0.0
2018-May-18 23:00N 28°09' W 015°25'0 0.0
2018-May-18 22:30N 28°09' W 015°25'0 0.0
2018-May-18 20:12N 28°09' W 015°25'0 0.0
2018-May-18 20:00N 28°09' W 015°25'0 0.0
2018-May-18 16:09N 28°09' W 015°25'0 0.0
2018-May-18 15:59N 28°09' W 015°25'0 0.0
2018-May-18 15:30N 28°09' W 015°25'0 0.0
2018-May-18 14:57N 28°09' W 015°25'0 0.0
2018-May-18 14:28N 28°09' W 015°25'0 0.0
2018-May-18 14:00N 28°09' W 015°25'0 0.0
2018-May-18 13:29N 28°09' W 015°25'0 0.0
2018-May-18 12:50N 28°09' W 015°25'0 0.0
2018-May-18 12:29N 28°09' W 015°25'0 0.0
2018-May-18 12:00N 28°09' W 015°25'0 0.0
2018-May-18 11:30N 28°09' W 015°25'0 0.0
2018-May-18 11:00N 28°09' W 015°25'0 0.0
2018-May-18 10:30N 28°09' W 015°25'0 0.0
2018-May-18 09:57N 28°09' W 015°25'0 0.0
2018-May-18 09:30N 28°09' W 015°25'0 0.0
2018-May-18 09:00N 28°09' W 015°25'  

Dump ship's entire track history